Terminal Aerodrome Forecast
Issued by NWS

Home | Current Version | Previous Version | Text Only | Print | Product List | Glossary On
Versions: 1 2 3 4 5 6 7 8 9 10 11 12 13
000
FTUS43 KDTX 040533
TAFMBS
TAF
KMBS 040533Z 0406/0506 20007KT P6SM BKN100 OVC200
     FM041000 23012KT 5SM -SHRA OVC050
     FM041400 23012G20KT 3SM -SHRA SCT025 OVC040
     FM041800 25010KT P6SM SCT040 BKN080
     FM042200 04010KT P6SM SCT080 BKN150=

USA.gov is the U.S. government's official web portal to all federal, state and local government web resources and services.